sensor_id;sensor_type;location;lat;lon;timestamp;pressure;altitude;pressure_sealevel;temperature;humidity
61710;BME280;47633;51.494;5.386;2023-07-13T00:01:44;101367.16;;;24.77;42.61
61710;BME280;47633;51.494;5.386;2023-07-13T00:04:11;101379.47;;;24.78;42.31
61710;BME280;47633;51.494;5.386;2023-07-13T00:06:37;101369.13;;;24.75;42.46
61710;BME280;47633;51.494;5.386;2023-07-13T00:09:02;101376.16;;;24.76;42.71
61710;BME280;47633;51.494;5.386;2023-07-13T00:11:28;101369.13;;;24.75;42.39
61710;BME280;47633;51.494;5.386;2023-07-13T00:13:53;101369.13;;;24.75;42.42
61710;BME280;47633;51.494;5.386;2023-07-13T00:16:19;101364.81;;;24.74;42.32
61710;BME280;47633;51.494;5.386;2023-07-13T00:18:45;101369.28;;;24.73;42.38
61710;BME280;47633;51.494;5.386;2023-07-13T00:21:11;101371.94;;;24.73;42.40
61710;BME280;47633;51.494;5.386;2023-07-13T00:23:39;101363.44;;;24.70;42.86
61710;BME280;47633;51.494;5.386;2023-07-13T00:26:07;101364.25;;;24.70;42.85
61710;BME280;47633;51.494;5.386;2023-07-13T00:28:33;101365.13;;;24.71;42.32
61710;BME280;47633;51.494;5.386;2023-07-13T00:30:59;101358.09;;;24.70;42.50
61710;BME280;47633;51.494;5.386;2023-07-13T00:33:25;101370.59;;;24.69;42.28
61710;BME280;47633;51.494;5.386;2023-07-13T00:35:50;101370.75;;;24.68;42.43
61710;BME280;47633;51.494;5.386;2023-07-13T00:38:16;101379.59;;;24.68;42.36
61710;BME280;47633;51.494;5.386;2023-07-13T00:40:42;101377.91;;;24.67;42.55
61710;BME280;47633;51.494;5.386;2023-07-13T00:43:19;101378.06;;;24.66;42.99
61710;BME280;47633;51.494;5.386;2023-07-13T00:48:11;101380.56;;;24.67;42.67
61710;BME280;47633;51.494;5.386;2023-07-13T00:50:39;101381.72;;;24.65;42.41
61710;BME280;47633;51.494;5.386;2023-07-13T00:53:05;101380.88;;;24.64;42.82
61710;BME280;47633;51.494;5.386;2023-07-13T00:55:31;101374.72;;;24.63;42.89
61710;BME280;47633;51.494;5.386;2023-07-13T00:57:57;101372.19;;;24.62;43.03
61710;BME280;47633;51.494;5.386;2023-07-13T01:00:24;101375.53;;;24.64;42.67
61710;BME280;47633;51.494;5.386;2023-07-13T01:02:51;101373.88;;;24.63;42.43
61710;BME280;47633;51.494;5.386;2023-07-13T01:05:20;101374.03;;;24.61;42.30
61710;BME280;47633;51.494;5.386;2023-07-13T01:07:47;101377.53;;;24.62;42.81
61710;BME280;47633;51.494;5.386;2023-07-13T01:10:14;101369.53;;;24.62;43.03
61710;BME280;47633;51.494;5.386;2023-07-13T01:12:40;101372.19;;;24.62;42.84
61710;BME280;47633;51.494;5.386;2023-07-13T01:18:00;101378.53;;;24.61;42.60
61710;BME280;47633;51.494;5.386;2023-07-13T01:20:26;101379.69;;;24.58;42.63
61710;BME280;47633;51.494;5.386;2023-07-13T01:22:51;101378.69;;;24.59;42.42
61710;BME280;47633;51.494;5.386;2023-07-13T01:25:18;101380.50;;;24.59;42.79
61710;BME280;47633;51.494;5.386;2023-07-13T01:27:44;101373.69;;;24.56;42.90
61710;BME280;47633;51.494;5.386;2023-07-13T01:30:09;101383.31;;;24.57;42.79
61710;BME280;47633;51.494;5.386;2023-07-13T01:32:35;101386.00;;;24.57;42.38
61710;BME280;47633;51.494;5.386;2023-07-13T01:35:01;101386.25;;;24.54;42.62
61710;BME280;47633;51.494;5.386;2023-07-13T01:37:27;101386.13;;;24.56;42.56
61710;BME280;47633;51.494;5.386;2023-07-13T01:39:53;101384.34;;;24.56;42.99
61710;BME280;47633;51.494;5.386;2023-07-13T01:42:18;101388.94;;;24.54;42.95
61710;BME280;47633;51.494;5.386;2023-07-13T01:44:43;101395.13;;;24.55;42.99
61710;BME280;47633;51.494;5.386;2023-07-13T01:47:10;101389.09;;;24.53;42.61
61710;BME280;47633;51.494;5.386;2023-07-13T01:49:36;101398.59;;;24.55;42.44
61710;BME280;47633;51.494;5.386;2023-07-13T01:52:02;101396.25;;;24.52;42.51
61710;BME280;47633;51.494;5.386;2023-07-13T01:54:28;101397.22;;;24.51;42.95
61710;BME280;47633;51.494;5.386;2023-07-13T01:56:53;101392.59;;;24.53;43.01
61710;BME280;47633;51.494;5.386;2023-07-13T01:59:19;101398.09;;;24.52;42.57
61710;BME280;47633;51.494;5.386;2023-07-13T02:01:44;101394.41;;;24.53;42.40
61710;BME280;47633;51.494;5.386;2023-07-13T02:04:09;101391.06;;;24.51;42.83
61710;BME280;47633;51.494;5.386;2023-07-13T02:06:36;101395.56;;;24.50;42.69
61710;BME280;47633;51.494;5.386;2023-07-13T02:09:01;101391.22;;;24.49;42.82
61710;BME280;47633;51.494;5.386;2023-07-13T02:11:26;101399.22;;;24.49;42.62
61710;BME280;47633;51.494;5.386;2023-07-13T02:13:59;101403.56;;;24.50;42.50
61710;BME280;47633;51.494;5.386;2023-07-13T02:16:24;101400.19;;;24.48;42.83
61710;BME280;47633;51.494;5.386;2023-07-13T02:18:49;101400.19;;;24.48;42.63
61710;BME280;47633;51.494;5.386;2023-07-13T02:21:17;101407.22;;;24.49;42.89
61710;BME280;47633;51.494;5.386;2023-07-13T02:23:43;101403.72;;;24.49;43.03
61710;BME280;47633;51.494;5.386;2023-07-13T02:26:08;101406.53;;;24.47;42.85
61710;BME280;47633;51.494;5.386;2023-07-13T02:28:33;101402.03;;;24.48;42.56
61710;BME280;47633;51.494;5.386;2023-07-13T02:31:08;101404.03;;;24.45;43.04
61710;BME280;47633;51.494;5.386;2023-07-13T02:33:34;101395.22;;;24.45;42.71
61710;BME280;47633;51.494;5.386;2023-07-13T02:35:59;101399.69;;;24.44;42.86
61710;BME280;47633;51.494;5.386;2023-07-13T02:38:24;101403.34;;;24.43;42.68
61710;BME280;47633;51.494;5.386;2023-07-13T02:40:50;101403.19;;;24.45;42.49
61710;BME280;47633;51.494;5.386;2023-07-13T02:43:15;101404.19;;;24.44;43.04
61710;BME280;47633;51.494;5.386;2023-07-13T02:45:45;101401.66;;;24.42;42.62
61710;BME280;47633;51.494;5.386;2023-07-13T02:48:10;101398.19;;;24.42;43.07
61710;BME280;47633;51.494;5.386;2023-07-13T02:50:36;101405.16;;;24.43;42.76
61710;BME280;47633;51.494;5.386;2023-07-13T02:53:01;101399.00;;;24.42;42.78
61710;BME280;47633;51.494;5.386;2023-07-13T02:55:27;101402.50;;;24.43;42.92
61710;BME280;47633;51.494;5.386;2023-07-13T02:57:52;101399.00;;;24.42;42.57
61710;BME280;47633;51.494;5.386;2023-07-13T03:00:19;101399.16;;;24.41;42.77
61710;BME280;47633;51.494;5.386;2023-07-13T03:02:45;101398.47;;;24.39;42.68
61710;BME280;47633;51.494;5.386;2023-07-13T03:05:11;101397.63;;;24.38;42.69
61710;BME280;47633;51.494;5.386;2023-07-13T03:07:38;101396.78;;;24.38;42.71
61710;BME280;47633;51.494;5.386;2023-07-13T03:10:04;101404.63;;;24.39;42.83
61710;BME280;47633;51.494;5.386;2023-07-13T03:12:29;101402.94;;;24.38;42.62
61710;BME280;47633;51.494;5.386;2023-07-13T03:14:54;101411.78;;;24.39;43.21
61710;BME280;47633;51.494;5.386;2023-07-13T03:17:20;101410.13;;;24.38;43.00
61710;BME280;47633;51.494;5.386;2023-07-13T03:19:45;101410.13;;;24.38;43.09
61710;BME280;47633;51.494;5.386;2023-07-13T03:22:15;101412.78;;;24.38;42.59
61710;BME280;47633;51.494;5.386;2023-07-13T03:24:40;101410.13;;;24.38;43.25
61710;BME280;47633;51.494;5.386;2023-07-13T03:27:06;101407.75;;;24.35;42.69
61710;BME280;47633;51.494;5.386;2023-07-13T03:29:32;101406.78;;;24.36;43.24
61710;BME280;47633;51.494;5.386;2023-07-13T03:31:57;101414.75;;;24.36;43.22
61710;BME280;47633;51.494;5.386;2023-07-13T03:34:22;101420.25;;;24.34;43.04
61710;BME280;47633;51.494;5.386;2023-07-13T03:36:48;101418.56;;;24.33;43.15
61710;BME280;47633;51.494;5.386;2023-07-13T03:39:13;101424.56;;;24.35;42.96
61710;BME280;47633;51.494;5.386;2023-07-13T03:41:38;101421.06;;;24.35;43.08
61710;BME280;47633;51.494;5.386;2023-07-13T03:44:04;101420.38;;;24.33;42.72
61710;BME280;47633;51.494;5.386;2023-07-13T03:46:30;101423.06;;;24.33;43.24
61710;BME280;47633;51.494;5.386;2023-07-13T03:48:55;101425.88;;;24.31;43.20
61710;BME280;47633;51.494;5.386;2023-07-13T03:51:21;101421.38;;;24.32;42.73
61710;BME280;47633;51.494;5.386;2023-07-13T03:53:47;101432.03;;;24.32;43.03
61710;BME280;47633;51.494;5.386;2023-07-13T03:56:13;101424.84;;;24.32;43.18
61710;BME280;47633;51.494;5.386;2023-07-13T03:58:41;101435.66;;;24.31;42.73
61710;BME280;47633;51.494;5.386;2023-07-13T04:01:09;101440.00;;;24.32;42.96
61710;BME280;47633;51.494;5.386;2023-07-13T04:03:35;101426.03;;;24.30;42.93
61710;BME280;47633;51.494;5.386;2023-07-13T04:06:03;101442.00;;;24.30;43.45
61710;BME280;47633;51.494;5.386;2023-07-13T04:08:31;101438.47;;;24.29;43.38
61710;BME280;47633;51.494;5.386;2023-07-13T04:10:58;101436.00;;;24.27;43.12
61710;BME280;47633;51.494;5.386;2023-07-13T04:13:24;101451.78;;;24.29;43.46
61710;BME280;47633;51.494;5.386;2023-07-13T04:15:49;101447.94;;;24.23;43.23
61710;BME280;47633;51.494;5.386;2023-07-13T04:18:15;101451.78;;;24.29;43.08
61710;BME280;47633;51.494;5.386;2023-07-13T04:20:40;101456.28;;;24.29;43.19
61710;BME280;47633;51.494;5.386;2023-07-13T04:23:06;101457.44;;;24.26;43.31
61710;BME280;47633;51.494;5.386;2023-07-13T04:25:31;101452.13;;;24.26;43.45
61710;BME280;47633;51.494;5.386;2023-07-13T04:27:56;101458.44;;;24.25;43.65
61710;BME280;47633;51.494;5.386;2023-07-13T04:30:22;101460.94;;;24.26;43.63
61710;BME280;47633;51.494;5.386;2023-07-13T04:32:50;101453.94;;;24.25;43.66
61710;BME280;47633;51.494;5.386;2023-07-13T04:35:17;101460.13;;;24.26;43.21
61710;BME280;47633;51.494;5.386;2023-07-13T04:37:42;101455.63;;;24.26;43.74
61710;BME280;47633;51.494;5.386;2023-07-13T04:40:08;101454.94;;;24.24;43.27
61710;BME280;47633;51.494;5.386;2023-07-13T04:42:37;101457.59;;;24.24;43.42
61710;BME280;47633;51.494;5.386;2023-07-13T04:45:02;101459.25;;;24.25;43.76
61710;BME280;47633;51.494;5.386;2023-07-13T04:47:30;101464.59;;;24.25;43.93
61710;BME280;47633;51.494;5.386;2023-07-13T04:49:55;101465.44;;;24.26;43.66
61710;BME280;47633;51.494;5.386;2023-07-13T04:52:22;101477.91;;;24.25;43.80
61710;BME280;47633;51.494;5.386;2023-07-13T04:54:48;101476.91;;;24.26;43.99
61710;BME280;47633;51.494;5.386;2023-07-13T04:57:13;101474.25;;;24.26;44.06
61710;BME280;47633;51.494;5.386;2023-07-13T04:59:38;101472.56;;;24.25;43.89
61710;BME280;47633;51.494;5.386;2023-07-13T05:02:04;101469.91;;;24.25;43.79
61710;BME280;47633;51.494;5.386;2023-07-13T05:04:30;101476.09;;;24.26;44.10
61710;BME280;47633;51.494;5.386;2023-07-13T05:06:55;101478.06;;;24.24;43.94
61710;BME280;47633;51.494;5.386;2023-07-13T05:09:20;101482.25;;;24.26;44.26
61710;BME280;47633;51.494;5.386;2023-07-13T05:11:46;101484.09;;;24.26;44.30
61710;BME280;47633;51.494;5.386;2023-07-13T05:14:11;101490.91;;;24.29;44.35
61710;BME280;47633;51.494;5.386;2023-07-13T05:16:36;101488.56;;;24.25;44.02
61710;BME280;47633;51.494;5.386;2023-07-13T05:19:02;101489.41;;;24.26;43.96
61710;BME280;47633;51.494;5.386;2023-07-13T05:21:28;101496.53;;;24.25;44.19
61710;BME280;47633;51.494;5.386;2023-07-13T05:23:53;101497.41;;;24.26;44.00
61710;BME280;47633;51.494;5.386;2023-07-13T05:26:19;101504.22;;;24.29;44.05
61710;BME280;47633;51.494;5.386;2023-07-13T05:28:46;101499.19;;;24.25;44.43
61710;BME280;47633;51.494;5.386;2023-07-13T05:31:12;101507.91;;;24.27;44.07
61710;BME280;47633;51.494;5.386;2023-07-13T05:33:38;101502.56;;;24.27;44.37
61710;BME280;47633;51.494;5.386;2023-07-13T05:36:03;101508.19;;;24.24;44.22
61710;BME280;47633;51.494;5.386;2023-07-13T05:38:29;101509.03;;;24.25;44.60
61710;BME280;47633;51.494;5.386;2023-07-13T05:40:56;101511.69;;;24.25;44.31
61710;BME280;47633;51.494;5.386;2023-07-13T05:43:22;101513.38;;;24.26;44.68
61710;BME280;47633;51.494;5.386;2023-07-13T05:45:48;101505.38;;;24.26;44.79
61710;BME280;47633;51.494;5.386;2023-07-13T05:48:15;101511.41;;;24.28;44.39
61710;BME280;47633;51.494;5.386;2023-07-13T05:50:40;101508.19;;;24.24;44.84
61710;BME280;47633;51.494;5.386;2023-07-13T05:53:06;101511.53;;;24.26;44.53
61710;BME280;47633;51.494;5.386;2023-07-13T05:55:31;101503.56;;;24.26;44.34
61710;BME280;47633;51.494;5.386;2023-07-13T05:57:57;101512.53;;;24.25;44.54
61710;BME280;47633;51.494;5.386;2023-07-13T06:00:23;101516.03;;;24.26;44.85
61710;BME280;47633;51.494;5.386;2023-07-13T06:02:49;101521.22;;;24.27;44.67
61710;BME280;47633;51.494;5.386;2023-07-13T06:05:15;101522.19;;;24.26;44.81
61710;BME280;47633;51.494;5.386;2023-07-13T06:07:41;101523.19;;;24.25;45.00
61710;BME280;47633;51.494;5.386;2023-07-13T06:10:07;101526.69;;;24.26;44.79
61710;BME280;47633;51.494;5.386;2023-07-13T06:12:32;101531.16;;;24.25;44.77
61710;BME280;47633;51.494;5.386;2023-07-13T06:14:58;101537.22;;;24.27;44.61
61710;BME280;47633;51.494;5.386;2023-07-13T06:17:23;101536.19;;;24.29;44.73
61710;BME280;47633;51.494;5.386;2023-07-13T06:19:48;101546.84;;;24.29;45.14
61710;BME280;47633;51.494;5.386;2023-07-13T06:22:14;101546.16;;;24.26;44.73
61710;BME280;47633;51.494;5.386;2023-07-13T06:24:39;101538.84;;;24.29;45.05
61710;BME280;47633;51.494;5.386;2023-07-13T06:27:05;101538.84;;;24.29;44.80
61710;BME280;47633;51.494;5.386;2023-07-13T06:29:30;101539.88;;;24.27;45.13
61710;BME280;47633;51.494;5.386;2023-07-13T06:31:56;101549.38;;;24.30;45.23
61710;BME280;47633;51.494;5.386;2023-07-13T06:34:22;101546.84;;;24.29;44.71
61710;BME280;47633;51.494;5.386;2023-07-13T06:36:47;101552.19;;;24.29;45.03
61710;BME280;47633;51.494;5.386;2023-07-13T06:39:13;101549.66;;;24.27;44.92
61710;BME280;47633;51.494;5.386;2023-07-13T06:41:39;101546.84;;;24.29;45.25
61710;BME280;47633;51.494;5.386;2023-07-13T06:44:04;101550.34;;;24.29;44.97
61710;BME280;47633;51.494;5.386;2023-07-13T06:46:30;101557.34;;;24.30;45.38
61710;BME280;47633;51.494;5.386;2023-07-13T06:48:55;101554.00;;;24.28;45.21
61710;BME280;47633;51.494;5.386;2023-07-13T06:51:21;101558.34;;;24.29;45.45
61710;BME280;47633;51.494;5.386;2023-07-13T06:53:47;101559.34;;;24.28;45.46
61710;BME280;47633;51.494;5.386;2023-07-13T06:56:12;101559.63;;;24.25;45.84
61710;BME280;47633;51.494;5.386;2023-07-13T06:58:38;101568.34;;;24.17;45.70
61710;BME280;47633;51.494;5.386;2023-07-13T07:01:04;101569.81;;;24.02;46.47
61710;BME280;47633;51.494;5.386;2023-07-13T07:03:30;101562.31;;;23.87;46.43
61710;BME280;47633;51.494;5.386;2023-07-13T07:06:15;101565.09;;;23.76;47.00
61710;BME280;47633;51.494;5.386;2023-07-13T07:08:40;101561.94;;;23.63;46.70
61710;BME280;47633;51.494;5.386;2023-07-13T07:11:11;101567.44;;;23.51;46.89
61710;BME280;47633;51.494;5.386;2023-07-13T07:13:37;101570.94;;;23.42;47.66
61710;BME280;47633;51.494;5.386;2023-07-13T07:16:03;101568.84;;;23.36;47.92
61710;BME280;47633;51.494;5.386;2023-07-13T07:18:28;101563.41;;;23.28;48.08
61710;BME280;47633;51.494;5.386;2023-07-13T07:20:54;101575.28;;;23.24;48.74
61710;BME280;47633;51.494;5.386;2023-07-13T07:23:19;101566.91;;;23.18;48.55
61710;BME280;47633;51.494;5.386;2023-07-13T07:25:45;101572.63;;;23.14;48.62
61710;BME280;47633;51.494;5.386;2023-07-13T07:28:14;101578.63;;;23.16;48.64
61710;BME280;47633;51.494;5.386;2023-07-13T07:30:43;101576.56;;;23.20;48.69
61710;BME280;47633;51.494;5.386;2023-07-13T07:33:09;101589.31;;;23.26;48.56
61710;BME280;47633;51.494;5.386;2023-07-13T07:35:34;101587.75;;;23.33;48.31
61710;BME280;47633;51.494;5.386;2023-07-13T07:38:00;101574.84;;;23.38;48.37
61710;BME280;47633;51.494;5.386;2023-07-13T07:40:25;101571.75;;;23.43;48.27
61710;BME280;47633;51.494;5.386;2023-07-13T07:42:51;101575.69;;;23.48;47.56
61710;BME280;47633;51.494;5.386;2023-07-13T07:45:17;101577.78;;;23.54;48.05
61710;BME280;47633;51.494;5.386;2023-07-13T07:47:42;101577.50;;;23.58;48.16
61710;BME280;47633;51.494;5.386;2023-07-13T07:50:08;101585.59;;;23.66;47.75
61710;BME280;47633;51.494;5.386;2023-07-13T07:52:33;101583.19;;;23.72;47.84
61710;BME280;47633;51.494;5.386;2023-07-13T07:54:59;101578.13;;;23.79;47.75
61710;BME280;47633;51.494;5.386;2023-07-13T07:57:24;101575.91;;;23.84;47.65
61710;BME280;47633;51.494;5.386;2023-07-13T07:59:50;101592.97;;;23.92;47.61
61710;BME280;47633;51.494;5.386;2023-07-13T08:02:15;101585.41;;;23.97;47.44
61710;BME280;47633;51.494;5.386;2023-07-13T08:04:41;101596.44;;;24.02;47.06
61710;BME280;47633;51.494;5.386;2023-07-13T08:07:08;101582.84;;;24.05;47.21
61710;BME280;47633;51.494;5.386;2023-07-13T08:09:36;101591.25;;;24.10;46.87
61710;BME280;47633;51.494;5.386;2023-07-13T08:12:02;101579.28;;;24.14;47.11
61710;BME280;47633;51.494;5.386;2023-07-13T08:14:27;101579.84;;;24.18;46.55
61710;BME280;47633;51.494;5.386;2023-07-13T08:16:53;101583.91;;;24.22;46.75
61710;BME280;47633;51.494;5.386;2023-07-13T08:19:18;101580.94;;;24.25;47.07
61710;BME280;47633;51.494;5.386;2023-07-13T08:21:44;101586.81;;;24.29;46.51
61710;BME280;47633;51.494;5.386;2023-07-13T08:24:09;101578.50;;;24.32;46.79
61710;BME280;47633;51.494;5.386;2023-07-13T08:26:35;101590.28;;;24.29;45.24
61710;BME280;47633;51.494;5.386;2023-07-13T08:29:00;101585.44;;;24.15;45.46
61710;BME280;47633;51.494;5.386;2023-07-13T08:31:26;101587.47;;;24.03;46.10
61710;BME280;47633;51.494;5.386;2023-07-13T08:33:51;101593.53;;;23.95;45.96
61710;BME280;47633;51.494;5.386;2023-07-13T08:36:16;101586.97;;;23.89;46.32
61710;BME280;47633;51.494;5.386;2023-07-13T08:38:42;101589.63;;;23.89;46.57
61710;BME280;47633;51.494;5.386;2023-07-13T08:41:14;101582.78;;;23.87;47.11
61710;BME280;47633;51.494;5.386;2023-07-13T08:43:41;101581.06;;;23.86;45.56
61710;BME280;47633;51.494;5.386;2023-07-13T08:46:18;101576.00;;;23.83;46.70
61710;BME280;47633;51.494;5.386;2023-07-13T08:48:53;101578.13;;;23.79;46.53
61710;BME280;47633;51.494;5.386;2023-07-13T08:51:41;101578.97;;;23.80;46.17
61710;BME280;47633;51.494;5.386;2023-07-13T08:54:16;101575.91;;;23.75;45.73
61710;BME280;47633;51.494;5.386;2023-07-13T08:56:44;101580.09;;;23.77;46.70
61710;BME280;47633;51.494;5.386;2023-07-13T08:59:14;101584.88;;;23.83;46.29
61710;BME280;47633;51.494;5.386;2023-07-13T09:04:42;101579.53;;;23.93;46.14
61710;BME280;47633;51.494;5.386;2023-07-13T09:07:19;101583.28;;;24.00;46.30
61710;BME280;47633;51.494;5.386;2023-07-13T09:09:57;101585.06;;;24.09;46.49
61710;BME280;47633;51.494;5.386;2023-07-13T09:15:22;101580.56;;;24.20;46.22
61710;BME280;47633;51.494;5.386;2023-07-13T09:17:51;101582.78;;;24.24;46.39
61710;BME280;47633;51.494;5.386;2023-07-13T09:20:25;101579.81;;;24.27;46.52
61710;BME280;47633;51.494;5.386;2023-07-13T09:22:52;101584.38;;;24.35;45.96
61710;BME280;47633;51.494;5.386;2023-07-13T09:25:27;101578.06;;;24.36;45.97
61710;BME280;47633;51.494;5.386;2023-07-13T09:28:00;101599.78;;;24.41;45.87
61710;BME280;47633;51.494;5.386;2023-07-13T09:30:38;101583.50;;;24.44;45.91
61710;BME280;47633;51.494;5.386;2023-07-13T09:33:05;101582.22;;;24.49;45.95
61710;BME280;47633;51.494;5.386;2023-07-13T09:35:30;101566.09;;;24.50;45.77
61710;BME280;47633;51.494;5.386;2023-07-13T09:38:11;101577.56;;;24.51;45.91
61710;BME280;47633;51.494;5.386;2023-07-13T09:43:18;101579.66;;;24.57;45.62
61710;BME280;47633;51.494;5.386;2023-07-13T09:45:46;101580.50;;;24.57;45.73
61710;BME280;47633;51.494;5.386;2023-07-13T09:48:13;101578.09;;;24.54;45.70
61710;BME280;47633;51.494;5.386;2023-07-13T09:50:40;101577.41;;;24.52;45.23
61710;BME280;47633;51.494;5.386;2023-07-13T09:53:18;101578.69;;;24.48;45.71
61710;BME280;47633;51.494;5.386;2023-07-13T09:55:46;101585.41;;;24.52;45.61
61710;BME280;47633;51.494;5.386;2023-07-13T10:00:38;101584.56;;;24.61;45.21
61710;BME280;47633;51.494;5.386;2023-07-13T10:03:09;101586.25;;;24.62;44.92
61710;BME280;47633;51.494;5.386;2023-07-13T10:05:45;101585.25;;;24.63;44.52
61710;BME280;47633;51.494;5.386;2023-07-13T10:08:17;101588.91;;;24.62;44.98
61710;BME280;47633;51.494;5.386;2023-07-13T10:10:44;101585.09;;;24.65;44.83
61710;BME280;47633;51.494;5.386;2023-07-13T10:13:33;101582.41;;;24.65;44.72
61710;BME280;47633;51.494;5.386;2023-07-13T10:16:02;101583.81;;;24.69;44.36
61710;BME280;47633;51.494;5.386;2023-07-13T10:18:43;101592.78;;;24.68;44.37
61710;BME280;47633;51.494;5.386;2023-07-13T10:21:21;101592.94;;;24.67;43.83
61710;BME280;47633;51.494;5.386;2023-07-13T10:23:52;101590.94;;;24.69;44.38
61710;BME280;47633;51.494;5.386;2023-07-13T10:26:25;101594.31;;;24.71;44.24
61710;BME280;47633;51.494;5.386;2023-07-13T10:28:54;101596.84;;;24.72;44.44
61710;BME280;47633;51.494;5.386;2023-07-13T10:31:22;101593.00;;;24.75;44.70
61710;BME280;47633;51.494;5.386;2023-07-13T10:33:48;101587.84;;;24.73;44.67
61710;BME280;47633;51.494;5.386;2023-07-13T10:36:28;101589.53;;;24.74;44.73
61710;BME280;47633;51.494;5.386;2023-07-13T10:38:57;101594.03;;;24.74;44.75
61710;BME280;47633;51.494;5.386;2023-07-13T10:41:26;101596.53;;;24.75;44.74
61710;BME280;47633;51.494;5.386;2023-07-13T10:43:54;101611.97;;;24.72;45.22
61710;BME280;47633;51.494;5.386;2023-07-13T10:46:24;101622.09;;;24.68;45.14
61710;BME280;47633;51.494;5.386;2023-07-13T10:49:01;101621.56;;;24.65;45.26
61710;BME280;47633;51.494;5.386;2023-07-13T10:51:29;101616.09;;;24.66;45.67
61710;BME280;47633;51.494;5.386;2023-07-13T10:56:38;101621.41;;;24.66;45.81
61710;BME280;47633;51.494;5.386;2023-07-13T10:59:24;101625.88;;;24.66;46.04
61710;BME280;47633;51.494;5.386;2023-07-13T11:01:57;101626.75;;;24.66;46.12
61710;BME280;47633;51.494;5.386;2023-07-13T11:04:24;101619.28;;;24.70;46.73
61710;BME280;47633;51.494;5.386;2023-07-13T11:06:56;101621.94;;;24.70;46.84
61710;BME280;47633;51.494;5.386;2023-07-13T11:09:38;101619.81;;;24.73;46.53
61710;BME280;47633;51.494;5.386;2023-07-13T11:15:12;101607.72;;;24.79;46.55
61710;BME280;47633;51.494;5.386;2023-07-13T11:17:50;101604.25;;;24.78;46.39
61710;BME280;47633;51.494;5.386;2023-07-13T11:22:47;101608.25;;;24.83;46.22
61710;BME280;47633;51.494;5.386;2023-07-13T11:25:27;101610.53;;;24.77;46.51
61710;BME280;47633;51.494;5.386;2023-07-13T11:30:41;101604.63;;;24.84;46.67
61710;BME280;47633;51.494;5.386;2023-07-13T11:38:36;101609.19;;;24.91;46.36
61710;BME280;47633;51.494;5.386;2023-07-13T11:41:28;101603.00;;;24.91;46.56
61710;BME280;47633;51.494;5.386;2023-07-13T11:43:55;101598.22;;;24.94;46.46
61710;BME280;47633;51.494;5.386;2023-07-13T11:46:28;101615.88;;;24.95;47.33
61710;BME280;47633;51.494;5.386;2023-07-13T11:48:54;101620.25;;;24.96;46.97
61710;BME280;47633;51.494;5.386;2023-07-13T11:53:53;101614.91;;;24.96;47.45
61710;BME280;47633;51.494;5.386;2023-07-13T11:56:19;101625.41;;;24.98;47.29
61710;BME280;47633;51.494;5.386;2023-07-13T11:58:49;101621.91;;;24.97;47.09
61710;BME280;47633;51.494;5.386;2023-07-13T12:01:35;101624.56;;;24.97;47.09
61710;BME280;47633;51.494;5.386;2023-07-13T12:04:03;101625.13;;;25.01;47.28
61710;BME280;47633;51.494;5.386;2023-07-13T12:06:30;101630.31;;;25.03;46.82
61710;BME280;47633;51.494;5.386;2023-07-13T12:08:58;101620.63;;;25.02;46.92
61710;BME280;47633;51.494;5.386;2023-07-13T12:11:24;101617.94;;;25.02;47.23
61710;BME280;47633;51.494;5.386;2023-07-13T12:13:50;101611.63;;;25.03;46.63
61710;BME280;47633;51.494;5.386;2023-07-13T12:18:53;101616.25;;;25.01;46.98
61710;BME280;47633;51.494;5.386;2023-07-13T12:21:19;101612.09;;;24.98;47.44
61710;BME280;47633;51.494;5.386;2023-07-13T12:23:49;101617.72;;;24.95;46.91
61710;BME280;47633;51.494;5.386;2023-07-13T12:26:15;101627.41;;;24.96;47.41
61710;BME280;47633;51.494;5.386;2023-07-13T12:28:47;101620.91;;;24.98;47.34
61710;BME280;47633;51.494;5.386;2023-07-13T12:33:58;101610.84;;;24.92;47.31
61710;BME280;47633;51.494;5.386;2023-07-13T12:36:24;101608.19;;;24.92;47.15
61710;BME280;47633;51.494;5.386;2023-07-13T12:38:50;101623.66;;;24.89;47.45
61710;BME280;47633;51.494;5.386;2023-07-13T12:41:16;101618.19;;;24.90;47.35
61710;BME280;47633;51.494;5.386;2023-07-13T12:43:42;101624.47;;;24.89;47.00
61710;BME280;47633;51.494;5.386;2023-07-13T12:46:18;101620.16;;;24.88;47.47
61710;BME280;47633;51.494;5.386;2023-07-13T12:48:44;101627.00;;;24.91;47.03
61710;BME280;47633;51.494;5.386;2023-07-13T12:51:13;101629.97;;;24.88;47.02
61710;BME280;47633;51.494;5.386;2023-07-13T12:53:42;101640.88;;;24.94;46.79
61710;BME280;47633;51.494;5.386;2023-07-13T12:56:17;101633.78;;;24.85;47.13
61710;BME280;47633;51.494;5.386;2023-07-13T12:58:43;101643.59;;;24.85;46.90
61710;BME280;47633;51.494;5.386;2023-07-13T13:01:13;101648.09;;;24.84;46.82
61710;BME280;47633;51.494;5.386;2023-07-13T13:03:40;101642.63;;;24.86;47.05
61710;BME280;47633;51.494;5.386;2023-07-13T13:08:40;101649.50;;;24.88;46.83
61710;BME280;47633;51.494;5.386;2023-07-13T13:11:08;101652.16;;;24.88;46.98
61710;BME280;47633;51.494;5.386;2023-07-13T13:13:34;101645.13;;;24.87;46.96
61710;BME280;47633;51.494;5.386;2023-07-13T13:16:14;101653.13;;;24.87;46.78
61710;BME280;47633;51.494;5.386;2023-07-13T13:18:42;101655.66;;;24.89;46.67
61710;BME280;47633;51.494;5.386;2023-07-13T13:21:09;101656.63;;;24.88;46.65
61710;BME280;47633;51.494;5.386;2023-07-13T13:23:34;101658.31;;;24.89;46.80
61710;BME280;47633;51.494;5.386;2023-07-13T13:26:00;101649.63;;;24.87;46.78
61710;BME280;47633;51.494;5.386;2023-07-13T13:28:26;101671.78;;;24.87;46.33
61710;BME280;47633;51.494;5.386;2023-07-13T13:30:52;101670.81;;;24.88;46.64
61710;BME280;47633;51.494;5.386;2023-07-13T13:33:19;101660.31;;;24.87;46.83
61710;BME280;47633;51.494;5.386;2023-07-13T13:35:45;101657.34;;;24.90;46.39